Time;durP1;ratioP1;P1;durP2;ratioP2;P2;SDS_P1;SDS_P2;PMS_P1;PMS_P2;Temp;Humidity;BMP_temperature;BMP_pressure;BME280_temperature;BME280_humidity;BME280_pressure;Samples;Min_cycle;Max_cycle;Signal;HPM_P1;HPM_P2
2023/04/23 00:01:18;;;;;;;;;;;20.30;54.40;;;;;;5011017;28;19961;-54
2023/04/23 00:03:43;;;;;;;;;;;20.40;54.40;;;;;;4995586;28;19920;-53
2023/04/23 00:06:09;;;;;;;;;;;20.30;54.40;;;;;;4994050;28;20370;-53
2023/04/23 00:08:39;;;;;;;;;;;20.30;54.30;;;;;;4993956;28;19910;-53
2023/04/23 00:11:05;;;;;;;;;;;20.30;54.30;;;;;;5002512;28;19921;-54
2023/04/23 00:13:30;;;;;;;;;;;20.30;54.40;;;;;;5008410;28;19972;-54
2023/04/23 00:15:56;;;;;;;;;;;20.30;54.50;;;;;;5009260;28;19921;-54
2023/04/23 00:18:21;;;;;;;;;;;20.30;54.50;;;;;;5002671;28;19918;-53
2023/04/23 00:20:47;;;;;;;;;;;20.30;54.50;;;;;;5001384;28;19917;-53
2023/04/23 00:23:12;;;;;;;;;;;20.30;54.50;;;;;;5008423;28;20188;-54
2023/04/23 00:25:38;;;;;;;;;;;20.30;54.50;;;;;;5014327;28;20281;-55
2023/04/23 00:28:03;;;;;;;;;;;20.30;54.50;;;;;;4999129;28;20260;-53
2023/04/23 00:30:29;;;;;;;;;;;20.30;54.80;;;;;;5000233;28;21104;-54
2023/04/23 00:32:54;;;;;;;;;;;20.30;54.80;;;;;;4998685;28;19921;-54
2023/04/23 00:35:19;;;;;;;;;;;20.30;54.90;;;;;;4996207;28;20431;-54
2023/04/23 00:37:45;;;;;;;;;;;20.30;55.00;;;;;;5000068;28;20537;-54
2023/04/23 00:40:10;;;;;;;;;;;20.30;55.00;;;;;;5000486;28;19921;-53
2023/04/23 00:42:37;;;;;;;;;;;20.40;54.80;;;;;;5010698;28;20036;-54
2023/04/23 00:45:03;;;;;;;;;;;20.30;54.90;;;;;;5030431;28;19918;-54
2023/04/23 00:47:29;;;;;;;;;;;20.30;55.10;;;;;;5011957;28;19920;-53
2023/04/23 00:49:55;;;;;;;;;;;20.30;55.10;;;;;;5003466;28;19922;-54
2023/04/23 00:52:20;;;;;;;;;;;20.30;55.10;;;;;;4986504;28;19929;-53
2023/04/23 00:54:46;;;;;;;;;;;20.30;55.20;;;;;;4993159;28;20351;-53
2023/04/23 00:57:11;;;;;;;;;;;20.30;55.20;;;;;;5003644;28;20326;-53
2023/04/23 00:59:37;;;;;;;;;;;20.30;55.20;;;;;;5007864;28;20382;-54
2023/04/23 01:02:02;;;;;;;;;;;20.30;55.20;;;;;;5000971;28;20283;-54
2023/04/23 01:04:28;;;;;;;;;;;20.30;55.20;;;;;;5011018;28;19913;-54
2023/04/23 01:06:54;;;;;;;;;;;20.30;55.20;;;;;;4993057;28;19945;-54
2023/04/23 01:09:19;;;;;;;;;;;20.30;55.20;;;;;;4993613;28;19917;-54
2023/04/23 01:11:44;;;;;;;;;;;20.20;55.30;;;;;;5002415;28;19917;-53
2023/04/23 01:14:10;;;;;;;;;;;20.20;55.20;;;;;;5040982;28;19951;-53
2023/04/23 01:16:37;;;;;;;;;;;20.20;55.50;;;;;;5008361;28;19971;-54
2023/04/23 01:19:06;;;;;;;;;;;20.30;55.50;;;;;;4996643;28;19924;-54
2023/04/23 01:21:33;;;;;;;;;;;20.30;55.50;;;;;;5004465;28;19914;-53
2023/04/23 01:23:58;;;;;;;;;;;20.30;55.60;;;;;;5009187;28;19913;-54
2023/04/23 01:26:23;;;;;;;;;;;20.30;55.70;;;;;;5010036;28;19952;-53
2023/04/23 01:28:49;;;;;;;;;;;20.30;55.70;;;;;;4997704;28;19968;-54
2023/04/23 01:31:15;;;;;;;;;;;20.30;55.80;;;;;;5006144;28;20291;-54
2023/04/23 01:33:40;;;;;;;;;;;20.30;56.00;;;;;;4987954;28;19921;-54
2023/04/23 01:36:06;;;;;;;;;;;20.30;55.90;;;;;;4991277;28;19918;-54
2023/04/23 01:38:31;;;;;;;;;;;20.30;55.90;;;;;;5004547;28;20416;-54
2023/04/23 01:40:57;;;;;;;;;;;20.30;56.00;;;;;;4991405;28;19949;-54
2023/04/23 01:43:22;;;;;;;;;;;20.30;56.10;;;;;;5003065;28;20012;-54
2023/04/23 01:45:48;;;;;;;;;;;20.40;56.00;;;;;;4999912;28;19918;-53
2023/04/23 01:48:13;;;;;;;;;;;20.40;56.10;;;;;;4999029;28;19918;-54
2023/04/23 01:50:39;;;;;;;;;;;20.40;56.10;;;;;;5032632;28;19917;-53
2023/04/23 01:53:04;;;;;;;;;;;20.40;56.10;;;;;;4992362;28;20438;-54
2023/04/23 01:55:30;;;;;;;;;;;20.40;56.10;;;;;;4997377;28;19914;-53
2023/04/23 01:57:55;;;;;;;;;;;20.40;56.20;;;;;;5029745;28;19917;-54
2023/04/23 02:00:21;;;;;;;;;;;20.40;56.20;;;;;;5009988;28;20290;-53
2023/04/23 02:02:46;;;;;;;;;;;20.40;56.30;;;;;;4990227;28;19918;-54
2023/04/23 02:05:13;;;;;;;;;;;20.40;56.20;;;;;;4987855;28;20373;-53
2023/04/23 02:07:38;;;;;;;;;;;20.40;56.20;;;;;;4989879;28;20025;-54
2023/04/23 02:10:04;;;;;;;;;;;20.50;56.30;;;;;;4999602;28;20397;-53
2023/04/23 02:12:30;;;;;;;;;;;20.40;56.20;;;;;;5010987;28;19953;-52
2023/04/23 02:14:55;;;;;;;;;;;20.40;56.20;;;;;;5007438;28;19929;-52
2023/04/23 02:17:21;;;;;;;;;;;20.50;56.40;;;;;;5010370;28;19921;-52
2023/04/23 02:19:47;;;;;;;;;;;20.40;56.10;;;;;;5000152;28;20432;-52
2023/04/23 02:22:13;;;;;;;;;;;20.40;56.10;;;;;;4992505;28;19918;-52
2023/04/23 02:24:40;;;;;;;;;;;20.40;55.90;;;;;;4998756;28;19918;-52
2023/04/23 02:27:06;;;;;;;;;;;20.40;56.00;;;;;;4999428;28;19935;-53
2023/04/23 02:29:31;;;;;;;;;;;20.30;56.00;;;;;;4998021;28;20413;-52
2023/04/23 02:31:57;;;;;;;;;;;20.30;55.90;;;;;;5001344;28;19960;-52
2023/04/23 02:34:22;;;;;;;;;;;20.30;55.90;;;;;;5005056;28;19918;-52
2023/04/23 02:36:48;;;;;;;;;;;20.30;55.80;;;;;;5000953;28;19913;-52
2023/04/23 02:39:13;;;;;;;;;;;20.30;55.70;;;;;;4996077;28;19972;-53
2023/04/23 02:41:39;;;;;;;;;;;20.30;55.70;;;;;;5007770;28;19917;-51
2023/04/23 02:44:04;;;;;;;;;;;20.30;55.70;;;;;;4995329;28;20059;-52
2023/04/23 02:46:30;;;;;;;;;;;20.30;55.60;;;;;;5010064;28;19920;-52
2023/04/23 02:48:56;;;;;;;;;;;20.30;55.50;;;;;;4992720;28;20294;-53
2023/04/23 02:51:21;;;;;;;;;;;20.30;55.40;;;;;;4998490;28;19925;-53
2023/04/23 02:53:46;;;;;;;;;;;20.30;55.30;;;;;;4989470;28;19993;-53
2023/04/23 02:56:12;;;;;;;;;;;20.20;56.10;;;;;;5010164;28;19914;-52
2023/04/23 02:58:37;;;;;;;;;;;20.20;55.30;;;;;;5002138;28;20003;-53
2023/04/23 03:01:04;;;;;;;;;;;20.20;55.30;;;;;;4999349;28;19956;-52
2023/04/23 03:03:30;;;;;;;;;;;20.20;55.20;;;;;;5001333;28;20374;-53
2023/04/23 03:05:56;;;;;;;;;;;20.20;55.10;;;;;;5002399;28;20186;-53
2023/04/23 03:08:21;;;;;;;;;;;20.20;55.10;;;;;;4982679;28;19929;-53
2023/04/23 03:10:47;;;;;;;;;;;20.20;55.10;;;;;;4995757;28;20260;-53
2023/04/23 03:13:12;;;;;;;;;;;20.20;55.10;;;;;;4993405;28;20404;-52
2023/04/23 03:15:39;;;;;;;;;;;20.20;55.10;;;;;;4983031;28;19918;-53
2023/04/23 03:18:07;;;;;;;;;;;20.20;55.10;;;;;;4992389;28;19914;-53
2023/04/23 03:20:33;;;;;;;;;;;20.20;55.10;;;;;;5005663;28;19968;-52
2023/04/23 03:22:58;;;;;;;;;;;20.20;55.10;;;;;;5005857;28;19918;-53
2023/04/23 03:25:24;;;;;;;;;;;20.10;55.00;;;;;;5006756;28;20304;-53
2023/04/23 03:27:50;;;;;;;;;;;20.10;55.00;;;;;;5003001;28;19914;-53
2023/04/23 03:30:16;;;;;;;;;;;20.10;55.00;;;;;;5002548;28;19967;-53
2023/04/23 03:32:41;;;;;;;;;;;20.10;54.80;;;;;;5000553;28;19914;-53
2023/04/23 03:35:08;;;;;;;;;;;20.10;54.80;;;;;;4986127;28;19914;-53
2023/04/23 03:37:33;;;;;;;;;;;20.10;54.80;;;;;;4994396;28;20004;-52
2023/04/23 03:40:02;;;;;;;;;;;20.10;54.80;;;;;;5010286;28;20061;-53
2023/04/23 03:42:27;;;;;;;;;;;20.10;54.80;;;;;;5013557;28;19909;-52
2023/04/23 03:44:53;;;;;;;;;;;20.10;54.80;;;;;;5001686;28;20389;-53
2023/04/23 03:47:18;;;;;;;;;;;20.10;54.70;;;;;;5013812;28;19918;-53
2023/04/23 03:49:43;;;;;;;;;;;20.10;54.70;;;;;;5010584;28;19943;-53
2023/04/23 03:52:09;;;;;;;;;;;20.10;54.70;;;;;;4991673;28;20444;-53
2023/04/23 03:54:34;;;;;;;;;;;20.00;54.60;;;;;;4996813;28;20317;-53
2023/04/23 03:57:00;;;;;;;;;;;20.00;54.50;;;;;;5005904;28;19918;-53
2023/04/23 03:59:26;;;;;;;;;;;20.00;54.50;;;;;;4993705;28;19918;-53
2023/04/23 04:01:51;;;;;;;;;;;20.00;54.40;;;;;;5035467;28;19914;-53
2023/04/23 04:04:17;;;;;;;;;;;20.00;54.40;;;;;;4993963;28;19972;-53
2023/04/23 04:06:42;;;;;;;;;;;20.10;54.40;;;;;;4994888;28;20030;-53
2023/04/23 04:09:08;;;;;;;;;;;20.10;54.20;;;;;;4992400;28;20001;-52
2023/04/23 04:11:33;;;;;;;;;;;20.10;54.10;;;;;;5005624;28;19917;-53
2023/04/23 04:13:59;;;;;;;;;;;20.10;54.00;;;;;;5011037;28;19921;-53
2023/04/23 04:16:24;;;;;;;;;;;20.10;53.90;;;;;;5011962;28;20326;-53
2023/04/23 04:18:50;;;;;;;;;;;20.10;53.80;;;;;;5007477;28;19940;-53
2023/04/23 04:21:16;;;;;;;;;;;20.10;53.70;;;;;;5012047;28;19913;-52
2023/04/23 04:23:42;;;;;;;;;;;20.10;53.80;;;;;;4993443;28;19933;-53
2023/04/23 04:26:07;;;;;;;;;;;20.10;53.80;;;;;;5006979;28;20358;-53
2023/04/23 04:28:35;;;;;;;;;;;20.20;53.60;;;;;;4997219;28;19924;-53
2023/04/23 04:31:01;;;;;;;;;;;20.20;53.60;;;;;;5006338;28;19948;-53
2023/04/23 04:33:27;;;;;;;;;;;20.20;53.50;;;;;;5003911;28;20425;-53
2023/04/23 04:35:53;;;;;;;;;;;20.20;53.50;;;;;;5000895;28;19910;-53
2023/04/23 04:38:20;;;;;;;;;;;20.20;53.60;;;;;;4996304;28;20397;-52
2023/04/23 04:40:47;;;;;;;;;;;20.10;53.40;;;;;;5003120;28;19921;-52
2023/04/23 04:43:13;;;;;;;;;;;20.10;53.40;;;;;;4998491;28;19913;-52
2023/04/23 04:45:38;;;;;;;;;;;20.10;53.40;;;;;;5011510;28;19924;-53
2023/04/23 04:48:04;;;;;;;;;;;20.10;53.30;;;;;;5001635;28;20056;-54
2023/04/23 04:50:29;;;;;;;;;;;20.10;53.30;;;;;;5008748;28;19982;-53
2023/04/23 04:52:55;;;;;;;;;;;20.10;53.30;;;;;;4994388;28;20404;-52
2023/04/23 04:55:20;;;;;;;;;;;20.10;53.30;;;;;;5006260;28;20038;-53
2023/04/23 04:57:45;;;;;;;;;;;20.10;53.20;;;;;;5000317;28;19920;-52
2023/04/23 05:00:26;;;;;;;;;;;20.10;53.20;;;;;;4999346;28;19921;-53
2023/04/23 05:02:52;;;;;;;;;;;20.10;53.20;;;;;;4992126;28;19936;-53
2023/04/23 05:05:17;;;;;;;;;;;20.10;53.20;;;;;;5011789;28;19913;-53
2023/04/23 05:07:43;;;;;;;;;;;20.10;53.20;;;;;;5008722;28;19913;-52
2023/04/23 05:10:08;;;;;;;;;;;20.10;53.20;;;;;;4994596;28;19918;-53
2023/04/23 05:12:34;;;;;;;;;;;20.00;53.10;;;;;;5005433;28;20011;-52
2023/04/23 05:14:59;;;;;;;;;;;20.00;53.00;;;;;;4993456;28;20297;-53
2023/04/23 05:17:25;;;;;;;;;;;20.00;53.10;;;;;;4993424;28;19910;-53
2023/04/23 05:19:50;;;;;;;;;;;20.00;53.20;;;;;;4996960;28;19918;-52
2023/04/23 05:22:17;;;;;;;;;;;20.00;53.00;;;;;;4989609;28;19917;-53
2023/04/23 05:24:43;;;;;;;;;;;20.00;53.00;;;;;;4992611;28;19910;-53
2023/04/23 05:27:08;;;;;;;;;;;20.00;53.00;;;;;;4989359;28;20445;-53
2023/04/23 05:29:34;;;;;;;;;;;20.00;53.10;;;;;;4995055;28;20041;-52
2023/04/23 05:31:59;;;;;;;;;;;20.00;53.00;;;;;;5000859;28;19913;-52
2023/04/23 05:34:25;;;;;;;;;;;20.00;53.00;;;;;;4990822;28;19918;-53
2023/04/23 05:36:50;;;;;;;;;;;20.00;53.00;;;;;;4973325;28;19914;-53
2023/04/23 05:39:15;;;;;;;;;;;20.00;53.00;;;;;;4990081;28;20012;-53
2023/04/23 05:41:41;;;;;;;;;;;20.00;52.90;;;;;;4993189;28;19918;-52
2023/04/23 05:44:06;;;;;;;;;;;19.90;52.80;;;;;;5004251;28;19917;-53
2023/04/23 05:46:32;;;;;;;;;;;20.00;52.90;;;;;;5000096;28;19914;-52
2023/04/23 05:48:57;;;;;;;;;;;19.90;52.80;;;;;;4997795;28;19968;-53
2023/04/23 05:51:23;;;;;;;;;;;19.90;52.90;;;;;;4985356;28;19921;-52
2023/04/23 05:53:48;;;;;;;;;;;19.90;52.90;;;;;;4980485;28;19925;-52
2023/04/23 05:56:13;;;;;;;;;;;19.90;52.90;;;;;;4992303;28;19922;-52
2023/04/23 05:58:39;;;;;;;;;;;19.90;52.80;;;;;;5001325;28;20297;-52
2023/04/23 06:01:05;;;;;;;;;;;20.00;53.00;;;;;;5004323;28;19914;-52
2023/04/23 06:03:30;;;;;;;;;;;19.90;52.80;;;;;;4994497;28;19989;-53
2023/04/23 06:05:56;;;;;;;;;;;19.90;52.70;;;;;;4992732;28;19918;-53
2023/04/23 06:08:21;;;;;;;;;;;19.90;52.60;;;;;;4992097;28;20293;-53
2023/04/23 06:10:46;;;;;;;;;;;19.90;52.80;;;;;;4987608;28;19914;-52
2023/04/23 06:13:12;;;;;;;;;;;19.90;52.60;;;;;;4992494;28;20013;-53
2023/04/23 06:15:37;;;;;;;;;;;19.90;52.80;;;;;;4997354;28;19918;-53
2023/04/23 06:18:03;;;;;;;;;;;19.90;52.70;;;;;;4993916;28;19914;-52
2023/04/23 06:20:28;;;;;;;;;;;19.90;52.60;;;;;;5006252;28;19921;-52
2023/04/23 06:22:54;;;;;;;;;;;19.90;52.60;;;;;;5011774;28;19917;-52
2023/04/23 06:25:19;;;;;;;;;;;19.90;52.60;;;;;;4995261;28;19910;-52
2023/04/23 06:27:45;;;;;;;;;;;19.90;52.50;;;;;;5010147;28;19968;-53
2023/04/23 06:30:10;;;;;;;;;;;19.90;52.50;;;;;;5003780;28;20369;-53
2023/04/23 06:32:36;;;;;;;;;;;19.90;52.30;;;;;;4995734;28;19922;-52
2023/04/23 06:35:02;;;;;;;;;;;19.90;52.20;;;;;;5001299;28;19914;-52
2023/04/23 06:37:27;;;;;;;;;;;19.90;52.20;;;;;;5044018;28;20313;-53
2023/04/23 06:39:53;;;;;;;;;;;19.90;52.20;;;;;;5001854;28;20009;-53
2023/04/23 06:42:18;;;;;;;;;;;19.90;52.10;;;;;;4995613;28;19918;-52
2023/04/23 06:44:45;;;;;;;;;;;19.90;52.00;;;;;;4999991;28;19966;-53
2023/04/23 06:47:11;;;;;;;;;;;19.90;51.80;;;;;;5012081;28;19916;-52
2023/04/23 06:49:36;;;;;;;;;;;19.90;51.70;;;;;;5012038;28;19914;-53
2023/04/23 06:52:02;;;;;;;;;;;19.90;51.60;;;;;;4994057;28;19915;-52
2023/04/23 06:54:27;;;;;;;;;;;19.90;51.60;;;;;;4990279;28;20008;-53
2023/04/23 06:56:52;;;;;;;;;;;19.90;51.60;;;;;;5003986;28;19913;-53
2023/04/23 06:59:18;;;;;;;;;;;19.90;51.50;;;;;;4996352;28;19917;-52
2023/04/23 07:01:44;;;;;;;;;;;19.90;51.60;;;;;;4973502;28;19918;-53
2023/04/23 07:04:09;;;;;;;;;;;19.90;51.50;;;;;;4993297;28;19914;-52
2023/04/23 07:06:35;;;;;;;;;;;19.80;51.40;;;;;;4990311;28;19922;-51
2023/04/23 07:09:01;;;;;;;;;;;19.90;51.50;;;;;;4999103;28;20365;-51
2023/04/23 07:11:26;;;;;;;;;;;19.80;51.20;;;;;;4998265;28;20385;-51
2023/04/23 07:13:51;;;;;;;;;;;19.80;51.30;;;;;;4999661;28;19925;-51
2023/04/23 07:16:17;;;;;;;;;;;19.90;51.40;;;;;;5000530;28;19968;-52
2023/04/23 07:18:42;;;;;;;;;;;19.90;51.90;;;;;;4992649;28;19913;-52
2023/04/23 07:21:08;;;;;;;;;;;19.90;51.20;;;;;;5026296;28;20009;-52
2023/04/23 07:23:33;;;;;;;;;;;19.90;51.10;;;;;;4994848;28;19918;-52
2023/04/23 07:25:59;;;;;;;;;;;19.90;51.10;;;;;;4995408;28;19922;-52
2023/04/23 07:28:24;;;;;;;;;;;19.90;51.10;;;;;;4992180;28;19914;-52
2023/04/23 07:30:50;;;;;;;;;;;19.90;50.90;;;;;;4990544;28;19914;-52
2023/04/23 07:33:16;;;;;;;;;;;19.90;51.00;;;;;;4993992;28;20012;-52
2023/04/23 07:35:41;;;;;;;;;;;19.80;50.90;;;;;;4993803;28;19921;-52
2023/04/23 07:38:06;;;;;;;;;;;19.80;51.40;;;;;;4990882;28;20293;-52
2023/04/23 07:40:32;;;;;;;;;;;19.80;50.80;;;;;;4992595;28;20357;-52
2023/04/23 07:42:58;;;;;;;;;;;19.80;50.80;;;;;;4992340;28;19914;-51
2023/04/23 07:45:23;;;;;;;;;;;19.80;50.70;;;;;;4996426;28;19914;-51
2023/04/23 07:47:49;;;;;;;;;;;19.80;50.70;;;;;;4976163;28;19917;-52
2023/04/23 07:50:14;;;;;;;;;;;19.80;50.60;;;;;;4992327;28;20436;-51
2023/04/23 07:52:40;;;;;;;;;;;19.80;50.60;;;;;;4993185;28;19968;-52
2023/04/23 07:55:06;;;;;;;;;;;19.80;50.50;;;;;;4997671;28;19918;-52
2023/04/23 07:57:31;;;;;;;;;;;19.80;50.40;;;;;;5005489;28;20461;-52
2023/04/23 07:59:57;;;;;;;;;;;19.80;50.60;;;;;;4992542;28;19925;-52
2023/04/23 08:02:22;;;;;;;;;;;19.80;50.40;;;;;;4984042;28;19918;-51
2023/04/23 08:04:48;;;;;;;;;;;19.80;50.40;;;;;;4991415;28;19918;-52
2023/04/23 08:07:13;;;;;;;;;;;19.80;50.50;;;;;;4995288;28;19918;-52
2023/04/23 08:09:39;;;;;;;;;;;19.80;50.40;;;;;;4994543;28;19917;-52
2023/04/23 08:12:04;;;;;;;;;;;19.80;50.50;;;;;;5009599;28;19910;-52
2023/04/23 08:14:30;;;;;;;;;;;19.80;50.60;;;;;;4995930;28;19946;-52
2023/04/23 08:16:55;;;;;;;;;;;19.80;50.70;;;;;;5003274;28;19971;-52
2023/04/23 08:19:21;;;;;;;;;;;19.80;50.60;;;;;;5005857;28;20275;-52
2023/04/23 08:21:47;;;;;;;;;;;19.90;50.80;;;;;;4974968;28;19957;-53
2023/04/23 08:24:12;;;;;;;;;;;19.80;51.50;;;;;;5013942;28;19914;-52
2023/04/23 08:26:38;;;;;;;;;;;19.80;50.70;;;;;;4997563;28;19921;-52
2023/04/23 08:29:04;;;;;;;;;;;19.90;50.80;;;;;;4992862;28;19960;-52
2023/04/23 08:31:30;;;;;;;;;;;19.90;50.80;;;;;;4994557;28;19917;-52
2023/04/23 08:33:55;;;;;;;;;;;19.90;50.80;;;;;;4992144;28;19913;-52
2023/04/23 08:36:21;;;;;;;;;;;19.80;50.60;;;;;;5007762;28;19918;-52
2023/04/23 08:38:46;;;;;;;;;;;19.80;50.60;;;;;;4989375;28;19914;-52
2023/04/23 08:41:12;;;;;;;;;;;19.80;50.60;;;;;;4987334;28;19921;-52
2023/04/23 08:43:42;;;;;;;;;;;19.80;50.50;;;;;;5025812;28;20433;-52
2023/04/23 08:46:07;;;;;;;;;;;19.80;50.30;;;;;;5026013;28;19914;-52
2023/04/23 08:48:32;;;;;;;;;;;19.80;50.40;;;;;;4993763;28;19936;-53
2023/04/23 08:50:58;;;;;;;;;;;19.90;50.50;;;;;;4993254;28;20389;-52
2023/04/23 08:53:24;;;;;;;;;;;19.90;50.60;;;;;;4990191;28;20291;-53
2023/04/23 08:55:50;;;;;;;;;;;19.90;50.60;;;;;;4974700;28;19916;-52
2023/04/23 08:58:15;;;;;;;;;;;19.90;50.30;;;;;;4978313;28;19987;-52
2023/04/23 09:00:41;;;;;;;;;;;19.90;50.40;;;;;;4974671;28;19916;-52
2023/04/23 09:03:06;;;;;;;;;;;19.90;50.40;;;;;;4998196;28;19917;-52
2023/04/23 09:05:32;;;;;;;;;;;19.90;50.30;;;;;;5001628;28;19913;-52
2023/04/23 09:07:58;;;;;;;;;;;19.90;49.90;;;;;;4995620;28;20298;-52
2023/04/23 09:10:24;;;;;;;;;;;19.90;50.20;;;;;;4993066;28;19924;-52
2023/04/23 09:12:49;;;;;;;;;;;20.00;50.60;;;;;;4992616;28;19914;-52
2023/04/23 09:15:15;;;;;;;;;;;20.00;50.10;;;;;;4991980;28;20410;-52
2023/04/23 09:17:41;;;;;;;;;;;20.00;50.10;;;;;;4990301;28;19909;-52
2023/04/23 09:20:10;;;;;;;;;;;19.90;49.90;;;;;;4993091;28;20064;-52
2023/04/23 09:22:48;;;;;;;;;;;20.00;50.30;;;;;;4991207;28;20008;-52
2023/04/23 09:25:15;;;;;;;;;;;19.90;50.00;;;;;;4992614;28;20368;-52
2023/04/23 09:27:40;;;;;;;;;;;20.00;50.30;;;;;;4989905;28;19921;-52
2023/04/23 09:30:06;;;;;;;;;;;20.00;50.20;;;;;;4991718;28;19910;-52
2023/04/23 09:32:35;;;;;;;;;;;20.00;50.30;;;;;;5023662;28;19914;-52
2023/04/23 09:35:02;;;;;;;;;;;20.00;50.50;;;;;;4991471;28;19917;-52
2023/04/23 09:37:27;;;;;;;;;;;20.00;50.30;;;;;;4990923;28;19917;-52
2023/04/23 09:39:55;;;;;;;;;;;20.00;50.00;;;;;;4989513;28;19925;-52
2023/04/23 09:42:25;;;;;;;;;;;20.00;50.30;;;;;;4992186;28;19910;-52
2023/04/23 09:45:10;;;;;;;;;;;20.10;50.70;;;;;;4991819;28;19918;-52
2023/04/23 09:47:54;;;;;;;;;;;20.10;51.00;;;;;;4991827;28;19913;-52
2023/04/23 09:50:40;;;;;;;;;;;20.10;51.00;;;;;;4986866;28;19921;-52
2023/04/23 09:53:06;;;;;;;;;;;20.10;51.20;;;;;;4987701;28;20393;-52
2023/04/23 09:55:39;;;;;;;;;;;20.10;51.50;;;;;;4991008;28;19910;-52
2023/04/23 09:58:05;;;;;;;;;;;20.10;51.50;;;;;;4990203;28;19910;-52
2023/04/23 10:00:31;;;;;;;;;;;20.10;51.40;;;;;;4982427;28;20397;-52
2023/04/23 10:02:56;;;;;;;;;;;20.20;51.30;;;;;;5021007;28;19959;-52
2023/04/23 10:05:22;;;;;;;;;;;20.20;51.50;;;;;;4994293;28;20004;-52
2023/04/23 10:07:47;;;;;;;;;;;20.10;51.20;;;;;;5007480;28;19981;-53
2023/04/23 10:10:13;;;;;;;;;;;20.20;52.10;;;;;;4991826;28;20386;-53
2023/04/23 10:12:39;;;;;;;;;;;20.20;50.60;;;;;;4995838;28;19918;-53
2023/04/23 10:15:04;;;;;;;;;;;20.20;50.20;;;;;;5000149;28;20000;-53
2023/04/23 10:17:30;;;;;;;;;;;20.20;50.90;;;;;;5011692;28;19944;-52
2023/04/23 10:19:56;;;;;;;;;;;20.10;50.90;;;;;;4997885;28;20007;-53
2023/04/23 10:22:22;;;;;;;;;;;20.10;50.90;;;;;;4995743;28;19924;-53
2023/04/23 10:24:50;;;;;;;;;;;20.20;50.60;;;;;;5003511;28;20368;-53
2023/04/23 10:27:15;;;;;;;;;;;20.20;51.20;;;;;;5042995;28;19918;-52
2023/04/23 10:29:41;;;;;;;;;;;20.20;50.70;;;;;;5003139;28;20010;-53
2023/04/23 10:32:06;;;;;;;;;;;20.20;50.60;;;;;;5003761;28;19918;-53
2023/04/23 10:34:32;;;;;;;;;;;20.20;50.50;;;;;;5001444;28;19917;-53
2023/04/23 10:37:00;;;;;;;;;;;20.20;50.10;;;;;;5003886;28;19925;-52
2023/04/23 10:39:26;;;;;;;;;;;20.20;50.10;;;;;;4997901;28;19977;-52
2023/04/23 10:41:52;;;;;;;;;;;20.30;50.40;;;;;;5010682;28;19921;-52
2023/04/23 10:44:20;;;;;;;;;;;20.20;50.10;;;;;;5035507;28;20291;-52
2023/04/23 10:46:52;;;;;;;;;;;20.30;50.80;;;;;;5010802;28;19914;-52
2023/04/23 10:49:17;;;;;;;;;;;20.10;47.80;;;;;;4989846;28;19922;-53
2023/04/23 10:51:46;;;;;;;;;;;19.90;46.80;;;;;;4997837;28;19910;-53
2023/04/23 10:54:15;;;;;;;;;;;19.90;47.30;;;;;;4984397;28;20271;-53
2023/04/23 10:56:40;;;;;;;;;;;20.10;48.30;;;;;;4996375;28;20362;-53
2023/04/23 10:59:19;;;;;;;;;;;20.20;47.90;;;;;;4998700;28;19916;-53
2023/04/23 11:01:51;;;;;;;;;;;20.20;48.50;;;;;;5012436;28;19958;-53
2023/04/23 11:04:23;;;;;;;;;;;20.20;48.60;;;;;;4988607;28;19921;-53
2023/04/23 11:06:49;;;;;;;;;;;20.30;49.50;;;;;;4989452;28;20008;-53
2023/04/23 11:09:27;;;;;;;;;;;20.30;49.70;;;;;;4987158;28;20422;-53
2023/04/23 11:11:53;;;;;;;;;;;20.30;49.40;;;;;;4991930;28;19914;-53
2023/04/23 11:14:19;;;;;;;;;;;20.30;49.30;;;;;;4989170;28;19922;-53
2023/04/23 11:16:44;;;;;;;;;;;20.30;48.50;;;;;;4987922;28;20294;-53
2023/04/23 11:19:11;;;;;;;;;;;20.40;49.60;;;;;;4983836;28;19929;-53
2023/04/23 11:21:55;;;;;;;;;;;20.40;49.30;;;;;;4984812;28;19921;-53
2023/04/23 11:24:27;;;;;;;;;;;20.50;48.60;;;;;;4986459;28;19914;-53
2023/04/23 11:26:55;;;;;;;;;;;20.50;49.70;;;;;;4988493;28;19919;-55
2023/04/23 11:29:22;;;;;;;;;;;20.50;49.30;;;;;;4990051;28;19914;-53
2023/04/23 11:31:48;;;;;;;;;;;20.40;48.90;;;;;;4987948;28;19913;-53
2023/04/23 11:34:13;;;;;;;;;;;20.40;49.10;;;;;;5018446;28;19933;-53
2023/04/23 11:36:39;;;;;;;;;;;20.50;49.60;;;;;;5019077;28;19918;-53
2023/04/23 11:39:05;;;;;;;;;;;20.50;49.70;;;;;;5019052;28;19921;-53
2023/04/23 11:41:31;;;;;;;;;;;20.50;49.20;;;;;;4987485;28;19930;-53
2023/04/23 11:43:57;;;;;;;;;;;20.40;48.80;;;;;;4988672;28;20289;-53
2023/04/23 11:46:23;;;;;;;;;;;20.40;49.00;;;;;;4987390;28;19914;-53
2023/04/23 11:48:48;;;;;;;;;;;20.40;48.70;;;;;;5023188;28;20384;-53
2023/04/23 11:51:14;;;;;;;;;;;20.50;49.50;;;;;;4988359;28;20403;-53
2023/04/23 11:53:45;;;;;;;;;;;20.60;49.40;;;;;;5015032;28;19922;-54
2023/04/23 11:56:10;;;;;;;;;;;20.60;49.30;;;;;;4983735;28;20397;-54
2023/04/23 11:58:36;;;;;;;;;;;20.70;49.30;;;;;;4985383;28;19921;-53
2023/04/23 12:01:01;;;;;;;;;;;20.70;49.10;;;;;;4986701;28;20336;-53
2023/04/23 12:03:28;;;;;;;;;;;20.70;49.00;;;;;;4987897;28;19988;-53
2023/04/23 12:05:55;;;;;;;;;;;20.70;49.40;;;;;;4988003;28;21211;-53
2023/04/23 12:08:20;;;;;;;;;;;20.80;48.70;;;;;;4986005;28;19914;-53
2023/04/23 12:10:49;;;;;;;;;;;20.80;48.70;;;;;;5015519;28;20267;-53
2023/04/23 12:13:15;;;;;;;;;;;20.80;49.20;;;;;;4984762;28;20464;-53
2023/04/23 12:16:06;;;;;;;;;;;20.80;49.00;;;;;;4986095;28;19913;-53
2023/04/23 12:18:34;;;;;;;;;;;20.80;48.10;;;;;;4987139;28;19917;-53
2023/04/23 12:21:10;;;;;;;;;;;20.80;49.10;;;;;;5018291;28;19925;-53
2023/04/23 12:23:36;;;;;;;;;;;20.90;49.00;;;;;;4982812;28;19988;-53
2023/04/23 12:26:05;;;;;;;;;;;20.90;48.60;;;;;;4985834;28;20298;-53
2023/04/23 12:28:31;;;;;;;;;;;20.90;48.90;;;;;;4983673;28;19921;-53
2023/04/23 12:31:00;;;;;;;;;;;20.90;49.00;;;;;;4987661;28;20008;-53
2023/04/23 12:33:29;;;;;;;;;;;20.90;48.30;;;;;;4985763;28;20008;-53
2023/04/23 12:35:55;;;;;;;;;;;21.00;49.10;;;;;;4985788;28;19918;-54
2023/04/23 12:38:25;;;;;;;;;;;21.00;49.50;;;;;;4985518;28;19914;-54
2023/04/23 12:41:00;;;;;;;;;;;21.00;48.80;;;;;;5001268;28;19924;-53
2023/04/23 12:43:26;;;;;;;;;;;21.00;49.20;;;;;;4984869;28;19917;-53
2023/04/23 12:45:52;;;;;;;;;;;21.00;49.50;;;;;;4983234;28;19967;-54
2023/04/23 12:48:17;;;;;;;;;;;21.00;49.30;;;;;;4987071;28;19918;-54
2023/04/23 12:50:46;;;;;;;;;;;21.10;48.60;;;;;;4989791;28;20079;-54
2023/04/23 12:53:11;;;;;;;;;;;21.00;47.80;;;;;;4994975;28;19953;-54
2023/04/23 12:55:38;;;;;;;;;;;21.00;49.00;;;;;;4987550;28;20000;-54
2023/04/23 12:58:03;;;;;;;;;;;20.90;49.00;;;;;;4986760;28;19918;-54
2023/04/23 13:00:29;;;;;;;;;;;20.80;49.00;;;;;;4988962;28;19924;-53
2023/04/23 13:02:55;;;;;;;;;;;20.70;49.20;;;;;;4984071;28;19984;-53
2023/04/23 13:05:20;;;;;;;;;;;20.70;49.10;;;;;;4986008;28;19957;-54
2023/04/23 13:07:46;;;;;;;;;;;20.70;49.10;;;;;;4984734;28;19917;-54
2023/04/23 13:10:11;;;;;;;;;;;20.70;48.00;;;;;;4987553;28;19967;-54
2023/04/23 13:12:37;;;;;;;;;;;20.60;49.10;;;;;;4985292;28;20115;-54
2023/04/23 13:15:03;;;;;;;;;;;20.50;48.80;;;;;;4982543;28;19949;-54
2023/04/23 13:17:29;;;;;;;;;;;20.50;48.90;;;;;;4985947;28;19918;-53
2023/04/23 13:19:55;;;;;;;;;;;20.50;48.50;;;;;;4984384;28;19913;-54
2023/04/23 13:22:20;;;;;;;;;;;20.60;48.50;;;;;;4982363;28;19922;-53
2023/04/23 13:24:46;;;;;;;;;;;20.60;48.50;;;;;;4981299;28;19933;-54
2023/04/23 13:27:11;;;;;;;;;;;20.50;47.00;;;;;;4989057;28;19987;-53
2023/04/23 13:29:38;;;;;;;;;;;20.40;46.50;;;;;;4985818;28;20024;-54
2023/04/23 13:32:04;;;;;;;;;;;20.50;46.70;;;;;;4987672;28;19917;-53
2023/04/23 13:34:29;;;;;;;;;;;20.60;47.20;;;;;;4985218;28;19944;-53
2023/04/23 13:36:55;;;;;;;;;;;20.60;47.70;;;;;;4986548;28;19957;-53
2023/04/23 13:39:22;;;;;;;;;;;20.60;48.10;;;;;;4985070;28;19946;-54
2023/04/23 13:41:48;;;;;;;;;;;20.60;47.60;;;;;;4986908;28;19929;-53
2023/04/23 13:44:14;;;;;;;;;;;20.50;48.10;;;;;;4984374;28;19922;-53
2023/04/23 13:46:40;;;;;;;;;;;20.50;47.90;;;;;;4984927;28;19924;-53
2023/04/23 13:49:05;;;;;;;;;;;20.50;47.70;;;;;;4983463;28;19918;-53
2023/04/23 13:51:31;;;;;;;;;;;20.50;47.60;;;;;;4985952;28;20413;-53
2023/04/23 13:53:58;;;;;;;;;;;20.40;46.80;;;;;;4977927;28;20374;-53
2023/04/23 13:56:23;;;;;;;;;;;20.40;47.60;;;;;;4983379;28;20004;-54
2023/04/23 13:58:51;;;;;;;;;;;20.50;46.30;;;;;;4982506;28;20020;-53
2023/04/23 14:01:17;;;;;;;;;;;20.50;46.90;;;;;;4998810;28;19914;-53
2023/04/23 14:03:42;;;;;;;;;;;20.50;47.50;;;;;;4985255;28;19914;-53
2023/04/23 14:06:08;;;;;;;;;;;20.50;47.50;;;;;;4985341;28;19921;-53
2023/04/23 14:08:35;;;;;;;;;;;20.50;47.50;;;;;;4985797;28;19944;-53
2023/04/23 14:11:01;;;;;;;;;;;20.60;47.40;;;;;;4984736;28;19914;-53